createdAt,value
2022-08-02T00:00:13.251Z,86.30
2022-08-02T00:01:13.469Z,86.90
2022-08-02T00:02:14.007Z,87.50
2022-08-02T00:03:13.246Z,87.20
2022-08-02T00:04:13.129Z,86.90
2022-08-02T00:05:13.173Z,87.20
2022-08-02T00:06:13.061Z,87.50
2022-08-02T00:07:13.011Z,87.30
2022-08-02T00:08:13.064Z,87.20
2022-08-02T00:09:13.359Z,87.10
2022-08-02T00:10:13.581Z,87.20
2022-08-02T00:11:13.506Z,87.10
2022-08-02T00:12:13.725Z,87.50
2022-08-02T00:13:12.857Z,88.40
2022-08-02T00:14:13.654Z,88.80
2022-08-02T00:15:15.959Z,90.30
2022-08-02T00:16:16.976Z,90.30
2022-08-02T00:17:13.011Z,90.10
2022-08-02T00:18:13.301Z,89.60
2022-08-02T00:19:13.742Z,88.90
2022-08-02T00:20:14.057Z,89.10
2022-08-02T00:21:13.267Z,89.80
2022-08-02T00:22:13.460Z,90.40
2022-08-02T00:23:13.966Z,90.40
2022-08-02T00:24:28.512Z,90.90
2022-08-02T00:25:13.561Z,90.90
2022-08-02T00:26:13.612Z,90.50
2022-08-02T00:27:14.641Z,90.30
2022-08-02T00:28:13.727Z,89.90
2022-08-02T00:29:13.685Z,89.70
2022-08-02T00:30:13.650Z,90.30
2022-08-02T00:31:13.552Z,90.30
2022-08-02T00:32:13.756Z,89.90
2022-08-02T00:33:13.979Z,90.00
2022-08-02T00:34:29.879Z,90.00
2022-08-02T00:35:13.329Z,89.60
2022-08-02T00:36:13.199Z,89.40
2022-08-02T00:37:13.108Z,89.50
2022-08-02T00:38:12.963Z,89.70
2022-08-02T00:39:35.210Z,89.60
2022-08-02T00:40:14.019Z,89.70
2022-08-02T00:41:13.145Z,90.20
2022-08-02T00:42:13.796Z,90.60
2022-08-02T00:43:14.833Z,90.50
2022-08-02T00:44:13.850Z,90.40
2022-08-02T00:45:14.278Z,90.00
2022-08-02T00:46:13.658Z,89.60
2022-08-02T00:47:19.319Z,89.30
2022-08-02T00:48:13.602Z,88.70
2022-08-02T00:49:13.939Z,88.30
2022-08-02T00:50:13.825Z,87.50
2022-08-02T00:51:13.754Z,87.50
2022-08-02T00:52:14.561Z,88.20
2022-08-02T00:53:13.740Z,87.90
2022-08-02T00:54:13.927Z,88.00
2022-08-02T00:55:13.120Z,87.90
2022-08-02T00:56:13.729Z,88.10
2022-08-02T00:57:13.781Z,90.20
2022-08-02T00:58:13.975Z,91.10
2022-08-02T00:59:13.171Z,91.40
2022-08-02T01:00:13.135Z,91.60
2022-08-02T01:01:13.223Z,91.30
2022-08-02T01:02:13.769Z,91.30
2022-08-02T01:03:13.125Z,91.20
2022-08-02T01:04:13.136Z,91.30
2022-08-02T01:05:13.134Z,91.60
2022-08-02T01:06:13.160Z,91.50
2022-08-02T01:07:14.041Z,91.70
2022-08-02T01:08:13.492Z,91.20
2022-08-02T01:09:13.850Z,91.20
2022-08-02T01:10:13.407Z,90.90
2022-08-02T01:11:13.387Z,90.80
2022-08-02T01:12:14.042Z,90.70
2022-08-02T01:13:13.506Z,90.80
2022-08-02T01:14:13.668Z,90.80
2022-08-02T01:15:13.646Z,90.90
2022-08-02T01:16:13.974Z,90.80
2022-08-02T01:17:13.281Z,90.90
2022-08-02T01:18:13.346Z,91.20
2022-08-02T01:19:16.032Z,91.40
2022-08-02T01:20:13.306Z,91.40
2022-08-02T01:21:13.448Z,91.60
2022-08-02T01:22:13.675Z,91.90
2022-08-02T01:23:13.709Z,91.80
2022-08-02T01:24:13.711Z,91.80
2022-08-02T01:25:13.856Z,91.90
2022-08-02T01:26:13.899Z,91.50
2022-08-02T01:27:12.964Z,91.50
2022-08-02T01:28:12.845Z,91.10
2022-08-02T01:29:13.820Z,90.90
2022-08-02T01:30:13.878Z,90.40
2022-08-02T01:31:14.358Z,90.10
2022-08-02T01:32:14.006Z,90.00
2022-08-02T01:33:13.615Z,90.10
2022-08-02T01:34:13.620Z,90.20
2022-08-02T01:35:13.726Z,89.90
2022-08-02T01:36:13.722Z,89.30
2022-08-02T01:37:13.934Z,88.80
2022-08-02T01:38:13.062Z,88.70
2022-08-02T01:39:26.951Z,89.20
2022-08-02T01:40:13.837Z,89.10
2022-08-02T01:41:13.732Z,90.00
2022-08-02T01:42:14.325Z,90.50
2022-08-02T01:43:13.373Z,90.70
2022-08-02T01:44:13.459Z,90.40
2022-08-02T01:45:13.320Z,89.90
2022-08-02T01:46:13.776Z,89.60
2022-08-02T01:47:14.218Z,90.00
2022-08-02T01:48:13.363Z,90.80
2022-08-02T01:49:13.272Z,91.00
2022-08-02T01:50:13.187Z,91.10
2022-08-02T01:51:13.207Z,91.30
2022-08-02T01:52:13.915Z,91.40
2022-08-02T01:53:13.653Z,91.40
2022-08-02T01:54:14.111Z,91.30
2022-08-02T01:55:18.385Z,91.40
2022-08-02T01:56:13.226Z,91.50
2022-08-02T01:57:13.260Z,91.50
2022-08-02T01:58:13.390Z,91.40
2022-08-02T01:59:13.303Z,91.10
2022-08-02T02:00:13.376Z,90.50
2022-08-02T02:01:15.117Z,90.30
2022-08-02T02:02:15.636Z,90.40
2022-08-02T02:03:13.961Z,90.20
2022-08-02T02:04:13.347Z,90.00
2022-08-02T02:05:13.367Z,90.00
2022-08-02T02:06:13.451Z,90.00
2022-08-02T02:07:13.808Z,90.40
2022-08-02T02:08:13.896Z,90.20
2022-08-02T02:09:13.635Z,90.80
2022-08-02T02:10:13.680Z,90.80
2022-08-02T02:12:09.617Z,90.80
2022-08-02T02:12:14.954Z,90.40
2022-08-02T02:13:13.534Z,90.90
2022-08-02T02:14:13.378Z,90.90
2022-08-02T02:15:13.240Z,90.80
2022-08-02T02:16:13.634Z,91.50
2022-08-02T02:17:52.638Z,91.80
2022-08-02T02:18:13.982Z,91.60
2022-08-02T02:19:13.250Z,91.00
2022-08-02T02:20:13.142Z,90.80
2022-08-02T02:21:13.201Z,91.20
2022-08-02T02:22:13.554Z,91.80
2022-08-02T02:23:14.131Z,91.90
2022-08-02T02:24:13.093Z,91.60
2022-08-02T02:25:15.015Z,91.80
2022-08-02T02:26:13.971Z,92.00
2022-08-02T02:27:14.552Z,92.10
2022-08-02T02:28:13.496Z,91.60
2022-08-02T02:29:13.770Z,91.50
2022-08-02T02:30:13.870Z,91.20
2022-08-02T02:31:13.847Z,91.20
2022-08-02T02:32:14.226Z,92.00
2022-08-02T02:33:13.566Z,92.40
2022-08-02T02:34:14.069Z,92.70
2022-08-02T02:35:13.395Z,92.90
2022-08-02T02:36:13.460Z,92.60
2022-08-02T02:37:13.799Z,92.50
2022-08-02T02:38:14.142Z,92.30
2022-08-02T02:39:14.006Z,92.70
2022-08-02T02:40:13.036Z,92.80
2022-08-02T02:41:13.084Z,93.00
2022-08-02T02:42:13.921Z,92.90
2022-08-02T02:43:13.263Z,92.70
2022-08-02T02:44:13.368Z,93.00
2022-08-02T02:45:13.340Z,92.90
2022-08-02T02:46:13.603Z,92.80
2022-08-02T02:47:13.901Z,93.00
2022-08-02T02:48:13.499Z,93.30
2022-08-02T02:49:13.623Z,93.30
2022-08-02T02:50:13.692Z,93.50
2022-08-02T02:51:13.978Z,93.70
2022-08-02T02:52:13.982Z,93.80
2022-08-02T02:53:13.297Z,93.90
2022-08-02T02:54:32.904Z,94.00
2022-08-02T02:55:13.203Z,94.00
2022-08-02T02:56:13.523Z,93.70
2022-08-02T02:57:14.003Z,93.80
2022-08-02T02:58:13.359Z,93.70
2022-08-02T02:59:13.382Z,93.60
2022-08-02T03:00:13.846Z,93.70
2022-08-02T03:01:13.905Z,93.60
2022-08-02T03:02:13.506Z,93.40
2022-08-02T03:03:14.081Z,93.10
2022-08-02T03:04:13.238Z,92.80
2022-08-02T03:05:13.491Z,93.60
2022-08-02T03:06:14.767Z,93.40
2022-08-02T03:07:14.037Z,93.40
2022-08-02T03:08:13.196Z,93.50
2022-08-02T03:09:13.142Z,93.40
2022-08-02T03:10:13.048Z,93.20
2022-08-02T03:11:13.129Z,93.40
2022-08-02T03:12:13.691Z,93.60
2022-08-02T03:13:13.965Z,93.40
2022-08-02T03:14:14.124Z,93.20
2022-08-02T03:15:13.160Z,92.90
2022-08-02T03:16:18.184Z,92.60
2022-08-02T03:17:13.444Z,92.50
2022-08-02T03:18:13.365Z,92.50
2022-08-02T03:19:13.574Z,93.20
2022-08-02T03:20:13.671Z,93.10
2022-08-02T03:21:13.797Z,93.20
2022-08-02T03:22:14.082Z,93.30
2022-08-02T03:23:13.742Z,93.30
2022-08-02T03:24:14.284Z,93.30
2022-08-02T03:25:13.510Z,93.20
2022-08-02T03:26:13.985Z,93.10
2022-08-02T03:27:13.214Z,93.20
2022-08-02T03:28:13.140Z,93.10
2022-08-02T03:29:13.517Z,93.10
2022-08-02T03:30:13.688Z,92.90
2022-08-02T03:31:14.195Z,92.70
2022-08-02T03:32:13.514Z,92.80
2022-08-02T03:33:14.343Z,92.90
2022-08-02T03:34:18.926Z,92.70
2022-08-02T03:35:14.146Z,92.80
2022-08-02T03:36:13.360Z,92.60
2022-08-02T03:37:13.254Z,92.50
2022-08-02T03:38:13.428Z,92.40
2022-08-02T03:39:13.703Z,92.30
2022-08-02T03:40:13.749Z,92.10
2022-08-02T03:41:14.069Z,92.30
2022-08-02T03:42:15.538Z,92.70
2022-08-02T03:43:13.827Z,92.50
2022-08-02T03:44:13.801Z,92.00
2022-08-02T03:45:13.982Z,92.00
2022-08-02T03:46:13.309Z,91.80
2022-08-02T03:47:13.210Z,91.80
2022-08-02T03:48:33.663Z,92.10
2022-08-02T03:49:13.869Z,92.20
2022-08-02T03:50:12.887Z,92.20
2022-08-02T03:51:13.100Z,91.80
2022-08-02T03:52:13.460Z,91.30
2022-08-02T03:53:19.862Z,91.40
2022-08-02T03:54:13.146Z,91.10
2022-08-02T03:55:13.330Z,91.40
2022-08-02T03:56:13.291Z,91.60
2022-08-02T03:57:13.327Z,91.30
2022-08-02T03:58:13.435Z,91.80
2022-08-02T03:59:13.386Z,92.40
2022-08-02T04:00:13.921Z,92.30
2022-08-02T04:01:13.202Z,92.00
2022-08-02T04:02:13.900Z,92.00
2022-08-02T04:03:13.351Z,91.70
2022-08-02T04:04:13.053Z,92.20
2022-08-02T04:05:13.285Z,93.70
2022-08-02T04:06:13.307Z,93.90
2022-08-02T04:07:13.963Z,94.20
2022-08-02T04:08:35.187Z,94.10
2022-08-02T04:09:13.849Z,93.90
2022-08-02T04:10:13.979Z,93.90
2022-08-02T04:11:13.090Z,93.70
2022-08-02T04:12:13.291Z,93.80
2022-08-02T04:13:13.642Z,93.60
2022-08-02T04:14:13.532Z,93.50
2022-08-02T04:15:13.831Z,93.20
2022-08-02T04:16:14.148Z,93.10
2022-08-02T04:17:13.412Z,92.90
2022-08-02T04:18:18.625Z,93.00
2022-08-02T04:19:14.746Z,92.80
2022-08-02T04:20:13.638Z,92.50
2022-08-02T04:21:13.783Z,92.00
2022-08-02T04:22:14.762Z,91.80
2022-08-02T04:23:14.434Z,91.80
2022-08-02T04:24:13.535Z,91.70
2022-08-02T04:25:15.574Z,91.80
2022-08-02T04:26:14.780Z,91.70
2022-08-02T04:27:49.171Z,91.50
2022-08-02T04:28:16.527Z,91.70
2022-08-02T04:29:13.226Z,91.90
2022-08-02T04:30:13.303Z,91.60
2022-08-02T04:31:13.382Z,91.60
2022-08-02T04:32:13.740Z,91.40
2022-08-02T04:33:13.453Z,91.20
2022-08-02T04:34:15.302Z,91.30
2022-08-02T04:35:20.829Z,91.50
2022-08-02T04:36:14.176Z,91.40
2022-08-02T04:37:13.264Z,91.50
2022-08-02T04:38:13.667Z,91.50
2022-08-02T04:39:13.657Z,91.30
2022-08-02T04:40:13.263Z,90.90
2022-08-02T04:41:13.143Z,91.10
2022-08-02T04:42:13.422Z,90.90
2022-08-02T04:43:13.674Z,90.80
2022-08-02T04:44:13.897Z,90.90
2022-08-02T04:45:16.553Z,90.60
2022-08-02T04:46:13.593Z,90.80
2022-08-02T04:47:13.739Z,90.70
2022-08-02T04:48:13.649Z,90.60
2022-08-02T04:49:13.691Z,90.70
2022-08-02T04:50:13.787Z,90.40
2022-08-02T04:51:14.185Z,90.20
2022-08-02T04:52:13.650Z,90.00
2022-08-02T04:53:13.086Z,90.20
2022-08-02T04:54:13.068Z,90.20
2022-08-02T04:55:13.306Z,90.00
2022-08-02T04:56:13.738Z,89.70
2022-08-02T04:57:13.872Z,89.40
2022-08-02T04:58:38.861Z,89.30
2022-08-02T04:59:13.971Z,88.80
2022-08-02T05:00:13.039Z,88.60
2022-08-02T05:01:13.717Z,88.50
2022-08-02T05:02:14.011Z,88.50
2022-08-02T05:03:13.472Z,88.10
2022-08-02T05:04:13.694Z,88.20
2022-08-02T05:05:13.627Z,88.10
2022-08-02T05:06:19.404Z,88.00
2022-08-02T05:07:13.978Z,88.40
2022-08-02T05:08:13.080Z,88.70
2022-08-02T05:09:18.194Z,88.10
2022-08-02T05:10:13.334Z,87.60
2022-08-02T05:11:13.565Z,87.60
2022-08-02T05:12:13.925Z,87.00
2022-08-02T05:13:13.354Z,86.60
2022-08-02T05:14:13.497Z,86.80
2022-08-02T05:15:13.639Z,86.70
2022-08-02T05:16:13.922Z,86.50
2022-08-02T05:17:12.956Z,86.30
2022-08-02T05:18:12.969Z,86.10
2022-08-02T05:19:13.515Z,85.90
2022-08-02T05:20:18.630Z,85.80
2022-08-02T05:21:13.688Z,85.50
2022-08-02T05:22:14.137Z,85.10
2022-08-02T05:23:13.207Z,84.90
2022-08-02T05:24:13.225Z,84.60
2022-08-02T05:25:13.170Z,84.40
2022-08-02T05:26:13.146Z,84.70
2022-08-02T05:27:17.334Z,84.90
2022-08-02T05:28:13.169Z,85.40
2022-08-02T05:29:13.422Z,85.10
2022-08-02T05:30:13.472Z,85.10
2022-08-02T05:31:15.387Z,84.60
2022-08-02T05:32:13.647Z,84.40
2022-08-02T05:33:13.811Z,84.60
2022-08-02T05:34:14.128Z,85.20
2022-08-02T05:35:13.193Z,85.10
2022-08-02T05:36:13.448Z,85.10
2022-08-02T05:37:13.713Z,85.40
2022-08-02T05:38:13.790Z,85.60
2022-08-02T05:39:18.594Z,85.20
2022-08-02T05:40:13.450Z,85.50
2022-08-02T05:41:13.615Z,85.20
2022-08-02T05:42:14.086Z,85.10
2022-08-02T05:43:13.513Z,86.30
2022-08-02T05:44:13.500Z,87.10
2022-08-02T05:45:13.541Z,87.00
2022-08-02T05:46:13.549Z,86.70
2022-08-02T05:47:13.432Z,86.60
2022-08-02T05:48:13.558Z,86.20
2022-08-02T05:49:13.546Z,86.10
2022-08-02T05:50:13.446Z,86.50
2022-08-02T05:51:13.747Z,87.20
2022-08-02T05:52:14.280Z,86.60
2022-08-02T05:53:13.631Z,86.40
2022-08-02T05:54:13.742Z,86.10
2022-08-02T05:55:14.224Z,86.30
2022-08-02T05:56:13.282Z,85.90
2022-08-02T05:57:13.376Z,85.70
2022-08-02T05:58:13.545Z,85.30
2022-08-02T05:59:13.505Z,85.10
2022-08-02T06:00:13.412Z,86.20
2022-08-02T06:01:13.545Z,86.20
2022-08-02T06:02:14.222Z,85.80
2022-08-02T06:03:13.599Z,85.60
2022-08-02T06:04:13.950Z,85.50
2022-08-02T06:05:13.180Z,85.90
2022-08-02T06:06:13.316Z,85.50
2022-08-02T06:07:13.440Z,85.40
2022-08-02T06:08:13.365Z,84.80
2022-08-02T06:09:14.374Z,84.20
2022-08-02T06:10:13.524Z,84.20
2022-08-02T06:11:13.850Z,84.20
2022-08-02T06:12:14.056Z,84.50
2022-08-02T06:13:14.416Z,84.20
2022-08-02T06:14:14.511Z,84.30
2022-08-02T06:15:13.447Z,84.00
2022-08-02T06:16:14.378Z,83.40
2022-08-02T06:17:13.077Z,83.10
2022-08-02T06:18:13.230Z,83.30
2022-08-02T06:19:13.920Z,83.00
2022-08-02T06:20:13.129Z,83.00
2022-08-02T06:22:31.882Z,81.90
2022-08-02T06:22:35.297Z,82.20
2022-08-02T06:23:13.848Z,82.10
2022-08-02T06:24:12.998Z,81.70
2022-08-02T06:25:50.975Z,81.50
2022-08-02T06:26:13.919Z,82.00
2022-08-02T06:27:13.231Z,81.40
2022-08-02T06:28:13.173Z,80.60
2022-08-02T06:29:13.389Z,80.60
2022-08-02T06:30:13.316Z,80.50
2022-08-02T06:31:15.073Z,81.00
2022-08-02T06:32:13.472Z,81.50
2022-08-02T06:33:13.757Z,81.00
2022-08-02T06:34:14.036Z,79.90
2022-08-02T06:35:13.426Z,79.80
2022-08-02T06:36:13.595Z,79.70
2022-08-02T06:37:12.987Z,79.00
2022-08-02T06:38:13.233Z,78.40
2022-08-02T06:39:13.466Z,78.00
2022-08-02T06:40:13.727Z,77.20
2022-08-02T06:41:14.330Z,76.80
2022-08-02T06:42:13.756Z,76.90
2022-08-02T06:43:13.233Z,76.70
2022-08-02T06:44:45.013Z,76.20
2022-08-02T06:45:13.518Z,76.50
2022-08-02T06:47:08.398Z,76.70
2022-08-02T06:47:13.984Z,76.20
2022-08-02T06:48:13.551Z,76.10
2022-08-02T06:49:13.694Z,75.50
2022-08-02T06:50:13.945Z,75.80
2022-08-02T06:51:13.376Z,77.00
2022-08-02T06:52:13.676Z,76.30
2022-08-02T06:53:13.300Z,75.90
2022-08-02T06:54:13.575Z,75.50
2022-08-02T06:55:15.147Z,75.40
2022-08-02T06:56:13.529Z,75.30
2022-08-02T06:57:13.458Z,74.80
2022-08-02T06:58:13.575Z,74.80
2022-08-02T06:59:13.757Z,74.70
2022-08-02T07:00:13.857Z,74.30
2022-08-02T07:01:14.024Z,74.00
2022-08-02T07:02:13.517Z,72.60
2022-08-02T07:03:13.807Z,73.20
2022-08-02T07:04:15.634Z,73.70
2022-08-02T07:05:13.846Z,72.90
2022-08-02T07:06:13.915Z,72.80
2022-08-02T07:07:13.285Z,72.60
2022-08-02T07:08:13.301Z,71.30
2022-08-02T07:09:21.581Z,71.40
2022-08-02T07:10:13.103Z,71.50
2022-08-02T07:11:13.144Z,69.90
2022-08-02T07:12:13.476Z,69.80
2022-08-02T07:13:14.138Z,70.60
2022-08-02T07:14:13.222Z,69.90
2022-08-02T07:15:13.381Z,68.80
2022-08-02T07:16:13.454Z,69.80
2022-08-02T07:17:13.735Z,71.40
2022-08-02T07:18:13.646Z,70.00
2022-08-02T07:19:13.161Z,70.00
2022-08-02T07:20:13.717Z,70.20
2022-08-02T07:21:14.024Z,70.20
2022-08-02T07:22:13.518Z,68.30
2022-08-02T07:23:13.695Z,67.20
2022-08-02T07:24:13.697Z,67.40
2022-08-02T07:25:13.678Z,67.90
2022-08-02T07:26:13.684Z,66.20
2022-08-02T07:27:13.953Z,64.70
2022-08-02T07:28:19.530Z,64.80
2022-08-02T07:29:13.559Z,63.20
2022-08-02T07:30:15.215Z,63.10
2022-08-02T07:31:14.997Z,62.60
2022-08-02T07:32:15.027Z,63.60
2022-08-02T07:33:38.703Z,59.80
2022-08-02T07:34:14.052Z,60.90
2022-08-02T07:35:13.323Z,60.40
2022-08-02T07:36:16.844Z,59.10
2022-08-02T07:37:35.208Z,58.10
2022-08-02T07:38:13.567Z,58.70
2022-08-02T07:39:13.128Z,57.60
2022-08-02T07:40:14.768Z,58.50
2022-08-02T07:41:13.564Z,58.00
2022-08-02T07:42:14.288Z,57.80
2022-08-02T07:43:13.672Z,58.00
2022-08-02T07:44:13.749Z,57.60
2022-08-02T07:45:13.920Z,55.60
2022-08-02T07:46:12.989Z,56.30
2022-08-02T07:47:14.035Z,57.00
2022-08-02T07:48:13.880Z,56.30
2022-08-02T07:49:13.240Z,56.10
2022-08-02T07:50:13.553Z,56.10
2022-08-02T07:51:17.210Z,56.20
2022-08-02T07:52:13.916Z,56.30
2022-08-02T07:53:13.489Z,56.20
2022-08-02T07:54:16.944Z,56.00
2022-08-02T07:55:13.335Z,56.00
2022-08-02T07:56:13.561Z,55.90
2022-08-02T07:57:15.157Z,56.20
2022-08-02T07:58:13.724Z,56.10
2022-08-02T07:59:13.300Z,55.90
2022-08-02T08:00:13.721Z,55.40
2022-08-02T08:01:14.254Z,54.70
2022-08-02T08:02:13.957Z,54.40
2022-08-02T08:03:13.369Z,53.50
2022-08-02T08:04:13.826Z,52.80
2022-08-02T08:05:13.906Z,54.30
2022-08-02T08:06:12.942Z,54.50
2022-08-02T08:07:12.974Z,53.50
2022-08-02T08:08:17.397Z,53.40
2022-08-02T08:09:15.763Z,53.00
2022-08-02T08:10:14.305Z,52.40
2022-08-02T08:11:13.287Z,52.10
2022-08-02T08:12:13.854Z,51.80
2022-08-02T08:13:13.473Z,51.90
2022-08-02T08:14:16.711Z,52.10
2022-08-02T08:15:14.157Z,52.40
2022-08-02T08:16:14.871Z,52.90
2022-08-02T08:17:12.991Z,51.50
2022-08-02T08:18:12.998Z,51.70
2022-08-02T08:19:13.008Z,51.90
2022-08-02T08:20:15.936Z,51.40
2022-08-02T08:21:13.399Z,50.90
2022-08-02T08:22:13.937Z,50.50
2022-08-02T08:23:13.781Z,50.10
2022-08-02T08:24:13.807Z,51.30
2022-08-02T08:25:13.880Z,50.30
2022-08-02T08:26:15.770Z,50.20
2022-08-02T08:27:14.766Z,50.90
2022-08-02T08:28:13.919Z,51.00
2022-08-02T08:29:12.888Z,51.30
2022-08-02T08:30:14.240Z,51.80
2022-08-02T08:31:17.067Z,51.20
2022-08-02T08:32:18.123Z,51.40
2022-08-02T08:33:13.829Z,50.30
2022-08-02T08:34:14.186Z,50.90
2022-08-02T08:35:13.684Z,50.30
2022-08-02T08:36:13.904Z,48.40
2022-08-02T08:37:16.521Z,48.90
2022-08-02T08:38:13.906Z,47.10
2022-08-02T08:39:12.924Z,48.20
2022-08-02T08:40:13.069Z,48.40
2022-08-02T08:41:15.077Z,47.70
2022-08-02T08:42:15.110Z,48.40
2022-08-02T08:43:13.786Z,49.10
2022-08-02T08:44:13.800Z,48.00
2022-08-02T08:45:15.417Z,49.30
2022-08-02T08:46:13.756Z,48.90
2022-08-02T08:47:13.791Z,48.60
2022-08-02T08:48:13.796Z,48.30
2022-08-02T08:49:13.917Z,47.60
2022-08-02T08:50:20.123Z,47.40
2022-08-02T08:51:12.971Z,46.90
2022-08-02T08:52:13.212Z,46.40
2022-08-02T08:53:13.889Z,45.50
2022-08-02T08:54:13.472Z,46.00
2022-08-02T08:55:13.707Z,45.50
2022-08-02T08:56:16.229Z,45.70
2022-08-02T08:57:14.142Z,46.20
2022-08-02T08:58:13.174Z,46.10
2022-08-02T08:59:13.453Z,47.30
2022-08-02T09:00:13.561Z,46.10
2022-08-02T09:01:13.616Z,45.60
2022-08-02T09:02:20.335Z,46.10
2022-08-02T09:03:13.579Z,46.10
2022-08-02T09:04:13.447Z,46.50
2022-08-02T09:05:13.871Z,46.40
2022-08-02T09:06:15.358Z,46.20
2022-08-02T09:07:13.410Z,45.70
2022-08-02T09:08:16.839Z,45.80
2022-08-02T09:09:15.033Z,44.60
2022-08-02T09:10:13.199Z,44.20
2022-08-02T09:11:13.762Z,45.20
2022-08-02T09:12:14.702Z,45.90
2022-08-02T09:13:37.956Z,45.00
2022-08-02T09:14:15.014Z,44.90
2022-08-02T09:15:15.926Z,44.60
2022-08-02T09:16:14.198Z,44.50
2022-08-02T09:17:14.101Z,44.20
2022-08-02T09:18:13.080Z,44.60
2022-08-02T09:19:14.324Z,44.00
2022-08-02T09:20:13.612Z,44.60
2022-08-02T09:21:13.887Z,45.10
2022-08-02T09:22:16.069Z,47.10
2022-08-02T09:23:13.575Z,43.40
2022-08-02T09:24:15.067Z,43.10
2022-08-02T09:25:15.094Z,43.50
2022-08-02T09:26:14.588Z,44.10
2022-08-02T09:27:13.946Z,43.10
2022-08-02T09:28:13.177Z,43.10
2022-08-02T09:29:13.093Z,42.80
2022-08-02T09:30:13.954Z,42.40
2022-08-02T09:31:14.922Z,42.70
2022-08-02T09:32:13.199Z,42.70
2022-08-02T09:33:13.615Z,41.10
2022-08-02T09:34:13.704Z,41.30
2022-08-02T09:35:13.640Z,41.90
2022-08-02T09:36:13.661Z,40.60
2022-08-02T09:37:13.593Z,39.90
2022-08-02T09:38:13.653Z,38.90
2022-08-02T09:39:15.327Z,39.00
2022-08-02T09:40:13.635Z,37.30
2022-08-02T09:41:13.647Z,36.80
2022-08-02T09:42:14.856Z,38.40
2022-08-02T09:43:14.788Z,37.90
2022-08-02T09:44:16.089Z,37.40
2022-08-02T09:45:13.713Z,38.20
2022-08-02T09:46:15.443Z,37.90
2022-08-02T09:47:14.118Z,38.80
2022-08-02T09:48:13.615Z,38.90
2022-08-02T09:49:13.902Z,39.00
2022-08-02T09:50:15.167Z,39.70
2022-08-02T09:51:13.718Z,39.80
2022-08-02T09:52:13.537Z,38.20
2022-08-02T09:53:13.943Z,37.80
2022-08-02T09:54:13.318Z,38.30
2022-08-02T09:55:13.600Z,38.20
2022-08-02T09:56:35.828Z,38.90
2022-08-02T09:57:15.309Z,40.10
2022-08-02T09:58:13.886Z,40.20
2022-08-02T09:59:13.608Z,39.50
2022-08-02T10:00:37.048Z,39.20
2022-08-02T10:01:14.202Z,38.70
2022-08-02T10:02:14.822Z,38.50
2022-08-02T10:03:22.066Z,36.60
2022-08-02T10:04:20.545Z,35.60
2022-08-02T10:05:15.323Z,35.50
2022-08-02T10:06:14.430Z,35.30
2022-08-02T10:07:15.792Z,36.10
2022-08-02T10:08:15.296Z,35.20
2022-08-02T10:09:13.281Z,34.40
2022-08-02T10:10:13.191Z,34.20
2022-08-02T10:11:14.053Z,36.00
2022-08-02T10:12:13.458Z,37.30
2022-08-02T10:13:14.075Z,37.70
2022-08-02T10:14:13.902Z,38.20
2022-08-02T10:15:14.404Z,38.30
2022-08-02T10:16:13.476Z,38.10
2022-08-02T10:17:13.403Z,39.30
2022-08-02T10:18:37.137Z,39.80
2022-08-02T10:19:16.048Z,40.40
2022-08-02T10:20:14.670Z,39.80
2022-08-02T10:21:13.631Z,40.60
2022-08-02T10:22:15.416Z,41.00
2022-08-02T10:23:15.961Z,41.60
2022-08-02T10:24:14.476Z,41.70
2022-08-02T10:25:16.482Z,41.80
2022-08-02T10:26:13.532Z,42.30
2022-08-02T10:27:13.638Z,41.20
2022-08-02T10:28:16.872Z,41.20
2022-08-02T10:29:13.925Z,40.30
2022-08-02T10:30:13.221Z,40.60
2022-08-02T10:31:13.296Z,41.10
2022-08-02T10:32:15.349Z,39.90
2022-08-02T10:33:13.183Z,38.80
2022-08-02T10:34:15.110Z,37.60
2022-08-02T10:35:19.980Z,39.10
2022-08-02T10:36:13.495Z,38.30
2022-08-02T10:37:14.859Z,39.00
2022-08-02T10:38:13.382Z,38.60
2022-08-02T10:39:16.052Z,39.40
2022-08-02T10:40:13.142Z,39.80
2022-08-02T10:41:13.452Z,38.70
2022-08-02T10:42:15.605Z,38.40
2022-08-02T10:43:15.379Z,39.10
2022-08-02T10:44:24.208Z,38.90
2022-08-02T10:45:13.356Z,37.60
2022-08-02T10:46:15.270Z,37.50
2022-08-02T10:47:15.111Z,37.90
2022-08-02T10:48:14.267Z,40.10
2022-08-02T10:49:38.050Z,40.50
2022-08-02T10:50:14.870Z,40.30
2022-08-02T10:51:15.852Z,39.90
2022-08-02T10:52:15.498Z,39.50
2022-08-02T10:53:15.606Z,41.40
2022-08-02T10:54:15.333Z,41.80
2022-08-02T10:55:14.955Z,41.80
2022-08-02T10:56:15.705Z,41.20
2022-08-02T10:57:15.303Z,41.30
2022-08-02T10:58:13.949Z,39.80
2022-08-02T10:59:12.995Z,38.40
2022-08-02T11:00:17.179Z,36.90
2022-08-02T11:01:13.726Z,36.40
2022-08-02T11:02:16.363Z,35.30
2022-08-02T11:03:15.668Z,37.60
2022-08-02T11:04:13.761Z,38.00
2022-08-02T11:05:15.365Z,37.30
2022-08-02T11:06:25.941Z,35.70
2022-08-02T11:07:14.754Z,34.80
2022-08-02T11:08:16.213Z,34.50
2022-08-02T11:09:15.684Z,34.90
2022-08-02T11:10:17.113Z,34.50
2022-08-02T11:11:17.594Z,35.30
2022-08-02T11:12:17.572Z,36.40
2022-08-02T11:13:16.323Z,35.60
2022-08-02T11:14:17.546Z,35.90
2022-08-02T11:15:14.431Z,35.50
2022-08-02T11:16:15.083Z,36.00
2022-08-02T11:17:17.026Z,36.70
2022-08-02T11:18:17.579Z,35.60
2022-08-02T11:19:17.201Z,37.30
2022-08-02T11:20:15.374Z,37.80
2022-08-02T11:21:14.608Z,35.60
2022-08-02T11:22:21.229Z,35.10
2022-08-02T11:23:13.210Z,33.90
2022-08-02T11:24:17.840Z,34.30
2022-08-02T11:25:13.786Z,34.80
2022-08-02T11:26:18.487Z,35.20
2022-08-02T11:27:18.559Z,34.50
2022-08-02T11:28:14.603Z,34.50
2022-08-02T11:29:16.299Z,34.50
2022-08-02T11:30:16.816Z,34.30
2022-08-02T11:31:18.937Z,36.40
2022-08-02T11:32:18.330Z,36.50
2022-08-02T11:33:19.085Z,36.60
2022-08-02T11:34:36.756Z,36.40
2022-08-02T11:35:18.016Z,36.40
2022-08-02T11:36:17.792Z,34.60
2022-08-02T11:37:22.179Z,36.60
2022-08-02T11:38:18.772Z,37.50
2022-08-02T11:39:19.908Z,37.10
2022-08-02T11:40:20.330Z,35.70
2022-08-02T11:41:47.071Z,36.50
2022-08-02T11:42:18.538Z,36.20
2022-08-02T11:43:16.837Z,35.70
2022-08-02T11:44:19.346Z,36.40
2022-08-02T11:45:20.810Z,34.80
2022-08-02T11:46:20.184Z,34.00
2022-08-02T11:47:15.576Z,34.10
2022-08-02T11:48:18.355Z,34.70
2022-08-02T11:49:18.643Z,35.40
2022-08-02T11:50:18.688Z,37.50
2022-08-02T11:51:21.084Z,37.40
2022-08-02T11:52:19.807Z,37.50
2022-08-02T11:53:19.597Z,38.50
2022-08-02T11:54:19.197Z,38.30
2022-08-02T11:55:20.170Z,38.10
2022-08-02T11:56:21.711Z,36.90
2022-08-02T11:57:19.799Z,36.20
2022-08-02T11:58:19.273Z,35.80
2022-08-02T11:59:20.264Z,36.10
2022-08-02T12:00:21.440Z,35.50
2022-08-02T12:01:17.897Z,36.60
2022-08-02T12:02:23.764Z,37.40
2022-08-02T12:03:20.055Z,37.00
2022-08-02T12:04:19.376Z,37.30
2022-08-02T12:05:19.138Z,36.80
2022-08-02T12:06:17.529Z,35.80
2022-08-02T12:07:19.433Z,35.20
2022-08-02T12:08:21.999Z,35.90
2022-08-02T12:09:18.685Z,35.50
2022-08-02T12:10:20.793Z,35.00
2022-08-02T12:11:21.172Z,36.30
2022-08-02T12:12:21.366Z,35.80
2022-08-02T12:13:20.835Z,36.90
2022-08-02T12:14:16.723Z,37.10
2022-08-02T12:15:19.896Z,36.70
2022-08-02T12:16:17.788Z,36.60
2022-08-02T12:17:20.064Z,36.90
2022-08-02T12:18:19.241Z,37.50
2022-08-02T12:19:20.084Z,38.70
2022-08-02T12:20:19.064Z,38.40
2022-08-02T12:21:19.158Z,37.50
2022-08-02T12:22:19.531Z,36.20
2022-08-02T12:23:17.311Z,36.20
2022-08-02T12:24:18.936Z,36.30
2022-08-02T12:25:34.162Z,37.10
2022-08-02T12:26:20.889Z,37.30
2022-08-02T12:27:18.584Z,37.30
2022-08-02T12:28:20.808Z,36.50
2022-08-02T12:29:57.815Z,35.90
2022-08-02T12:30:27.432Z,36.50
2022-08-02T12:31:16.771Z,36.00
2022-08-02T12:32:17.914Z,37.60
2022-08-02T12:33:20.186Z,37.50
2022-08-02T12:34:18.694Z,36.50
2022-08-02T12:35:26.810Z,34.80
2022-08-02T12:36:20.876Z,34.50
2022-08-02T12:37:16.807Z,34.60
2022-08-02T12:38:20.744Z,33.80
2022-08-02T12:39:20.161Z,33.80
2022-08-02T12:40:24.959Z,33.90
2022-08-02T12:41:31.048Z,34.10
2022-08-02T12:42:19.093Z,34.00
2022-08-02T12:43:20.330Z,33.60
2022-08-02T12:44:21.698Z,33.30
2022-08-02T12:45:21.074Z,34.00
2022-08-02T12:46:20.366Z,34.10
2022-08-02T12:47:21.569Z,35.50
2022-08-02T12:48:22.119Z,36.40
2022-08-02T12:49:20.373Z,36.60
2022-08-02T12:50:19.991Z,36.00
2022-08-02T12:51:20.489Z,35.50
2022-08-02T12:52:20.914Z,35.00